createdAt,value
2023-04-01T00:00:33.146Z,7.34
2023-04-01T00:03:02.493Z,7.33
2023-04-01T00:05:31.261Z,7.36
2023-04-01T00:07:59.720Z,7.37
2023-04-01T00:10:40.079Z,7.35
2023-04-01T00:13:08.559Z,7.34
2023-04-01T00:15:36.945Z,7.35
2023-04-01T00:18:05.956Z,7.38
2023-04-01T00:20:34.428Z,7.36
2023-04-01T00:23:03.099Z,7.34
2023-04-01T00:25:31.698Z,7.35
2023-04-01T00:28:00.074Z,7.36
2023-04-01T00:30:28.137Z,7.38
2023-04-01T00:33:01.662Z,7.37
2023-04-01T00:35:29.912Z,7.35
2023-04-01T00:38:06.529Z,7.35
2023-04-01T00:40:39.831Z,7.34
2023-04-01T00:43:21.574Z,7.33
2023-04-01T00:45:51.164Z,7.35
2023-04-01T00:48:23.552Z,7.40
2023-04-01T00:51:08.831Z,7.44
2023-04-01T00:53:39.781Z,7.41
2023-04-01T00:56:19.107Z,7.43
2023-04-01T00:58:51.506Z,7.44
2023-04-01T01:01:21.379Z,7.45
2023-04-01T01:03:50.292Z,7.44
2023-04-01T01:06:41.088Z,7.43
2023-04-01T01:09:41.110Z,7.44
2023-04-01T01:12:19.116Z,7.48
2023-04-01T01:14:51.004Z,7.51
2023-04-01T01:17:28.401Z,7.51
2023-04-01T01:19:57.364Z,7.50
2023-04-01T01:22:40.692Z,7.49
2023-04-01T01:25:38.460Z,7.50
2023-04-01T01:28:09.912Z,7.50
2023-04-01T01:30:58.566Z,7.48
2023-04-01T01:33:32.681Z,7.48
2023-04-01T01:36:03.961Z,7.50
2023-04-01T01:38:33.642Z,7.51
2023-04-01T01:41:08.647Z,7.48
2023-04-01T01:43:42.170Z,7.45
2023-04-01T01:46:14.224Z,7.45
2023-04-01T01:48:43.433Z,7.47
2023-04-01T01:51:18.421Z,7.47
2023-04-01T01:53:46.846Z,7.45
2023-04-01T01:56:23.623Z,7.44
2023-04-01T01:59:04.700Z,7.46
2023-04-01T02:01:39.155Z,7.44
2023-04-01T02:04:11.756Z,7.40
2023-04-01T02:07:09.571Z,7.40
2023-04-01T02:09:37.948Z,7.39
2023-04-01T02:12:08.212Z,7.32
2023-04-01T02:14:53.547Z,7.27
2023-04-01T02:17:23.986Z,7.23
2023-04-01T02:19:55.220Z,7.17
2023-04-01T02:22:49.614Z,7.07
2023-04-01T02:25:29.254Z,7.00
2023-04-01T02:28:02.137Z,6.98
2023-04-01T02:30:30.649Z,6.97
2023-04-01T02:32:59.639Z,6.94
2023-04-01T02:35:28.296Z,6.88
2023-04-01T02:38:05.075Z,6.84
2023-04-01T02:40:49.536Z,6.80
2023-04-01T02:43:17.808Z,6.75
2023-04-01T02:45:46.187Z,6.69
2023-04-01T02:48:16.001Z,6.63
2023-04-01T02:50:44.291Z,6.60
2023-04-01T02:53:19.581Z,6.55
2023-04-01T02:55:47.695Z,6.49
2023-04-01T02:58:24.676Z,6.45
2023-04-01T03:00:52.886Z,6.43
2023-04-01T03:03:22.223Z,6.39
2023-04-01T03:05:50.736Z,6.36
2023-04-01T03:08:21.265Z,6.33
2023-04-01T03:10:49.349Z,6.34
2023-04-01T03:13:19.560Z,6.38
2023-04-01T03:15:47.737Z,6.42
2023-04-01T03:18:16.831Z,6.45
2023-04-01T03:20:48.290Z,6.48
2023-04-01T03:23:18.509Z,6.52
2023-04-01T03:25:52.003Z,6.55
2023-04-01T03:28:20.080Z,6.57
2023-04-01T03:30:48.372Z,6.55
2023-04-01T03:33:18.478Z,6.53
2023-04-01T03:35:46.847Z,6.53
2023-04-01T03:38:15.805Z,6.55
2023-04-01T03:40:45.140Z,6.54
2023-04-01T03:43:13.836Z,6.51
2023-04-01T03:45:46.858Z,6.52
2023-04-01T03:48:16.847Z,6.52
2023-04-01T03:50:45.518Z,6.52
2023-04-01T03:53:19.122Z,6.55
2023-04-01T03:55:48.124Z,6.61
2023-04-01T03:58:23.784Z,6.67
2023-04-01T04:00:52.452Z,6.73
2023-04-01T04:03:29.725Z,6.73
2023-04-01T04:05:58.433Z,6.72
2023-04-01T04:08:33.978Z,6.74
2023-04-01T04:11:02.149Z,6.78
2023-04-01T04:13:31.759Z,6.82
2023-04-01T04:16:03.976Z,6.85
2023-04-01T04:18:32.710Z,6.88
2023-04-01T04:21:05.907Z,6.95
2023-04-01T04:23:34.902Z,7.01
2023-04-01T04:26:11.486Z,7.05
2023-04-01T04:28:39.964Z,7.05
2023-04-01T04:31:09.128Z,7.09
2023-04-01T04:33:39.910Z,7.15
2023-04-01T04:36:08.778Z,7.20
2023-04-01T04:38:41.262Z,7.28
2023-04-01T04:41:16.644Z,7.34
2023-04-01T04:43:52.574Z,7.41
2023-04-01T04:46:21.991Z,7.46
2023-04-01T04:48:51.680Z,7.49
2023-04-01T04:51:20.164Z,7.50
2023-04-01T04:53:50.191Z,7.54
2023-04-01T04:56:27.260Z,7.58
2023-04-01T04:59:07.621Z,7.57
2023-04-01T05:01:50.902Z,7.56
2023-04-01T05:04:20.145Z,7.55
2023-04-01T05:06:48.933Z,7.59
2023-04-01T05:09:20.402Z,7.64
2023-04-01T05:11:52.048Z,7.68
2023-04-01T05:14:20.932Z,7.71
2023-04-01T05:17:03.651Z,7.76
2023-04-01T05:19:32.029Z,7.82
2023-04-01T05:22:01.019Z,7.91
2023-04-01T05:24:31.342Z,8.03
2023-04-01T05:27:01.393Z,8.16
2023-04-01T05:29:31.072Z,8.30
2023-04-01T05:32:06.931Z,8.49
2023-04-01T05:34:36.033Z,8.70
2023-04-01T05:37:04.100Z,8.83
2023-04-01T05:39:33.404Z,8.91
2023-04-01T05:42:01.468Z,9.04
2023-04-01T05:44:32.818Z,9.21
2023-04-01T05:47:05.502Z,9.27
2023-04-01T05:49:35.363Z,9.24
2023-04-01T05:52:03.792Z,9.21
2023-04-01T05:54:32.996Z,9.26
2023-04-01T05:57:01.203Z,9.32
2023-04-01T05:59:32.409Z,9.31
2023-04-01T06:02:01.710Z,9.38
2023-04-01T06:04:34.386Z,9.42
2023-04-01T06:07:02.463Z,9.45
2023-04-01T06:09:33.400Z,9.43
2023-04-01T06:12:24.107Z,9.45
2023-04-01T06:15:02.751Z,9.50
2023-04-01T06:18:09.443Z,9.57
2023-04-01T06:20:46.281Z,9.71
2023-04-01T06:23:56.792Z,9.85
2023-04-01T06:26:49.401Z,10.00
2023-04-01T06:29:50.557Z,10.16
2023-04-01T06:32:52.887Z,10.32
2023-04-01T06:35:37.133Z,10.51
2023-04-01T06:38:11.965Z,10.67
2023-04-01T06:41:02.910Z,10.74
2023-04-01T06:43:51.361Z,10.71
2023-04-01T06:46:54.046Z,10.78
2023-04-01T06:50:37.562Z,10.80
2023-04-01T06:53:40.072Z,10.85
2023-04-01T06:56:28.532Z,10.96
2023-04-01T06:59:22.714Z,11.07
2023-04-01T07:01:56.408Z,11.17
2023-04-01T07:04:29.136Z,11.15
2023-04-01T07:07:28.388Z,11.13
2023-04-01T07:10:02.190Z,11.27
2023-04-01T07:12:47.363Z,11.36
2023-04-01T07:15:37.709Z,11.40
2023-04-01T07:18:19.050Z,11.37
2023-04-01T07:20:47.316Z,11.30
2023-04-01T07:23:23.985Z,11.28
2023-04-01T07:26:25.454Z,11.39
2023-04-01T07:29:13.596Z,11.45
2023-04-01T07:32:05.826Z,11.39
2023-04-01T07:34:41.576Z,11.48
2023-04-01T07:37:13.131Z,11.51
2023-04-01T07:39:48.040Z,11.52
2023-04-01T07:42:43.593Z,11.53
2023-04-01T07:45:17.697Z,11.52
2023-04-01T07:47:47.385Z,11.58
2023-04-01T07:50:33.007Z,11.56
2023-04-01T07:53:01.576Z,11.57
2023-04-01T07:55:39.171Z,11.62
2023-04-01T07:58:14.050Z,11.72
2023-04-01T08:00:50.477Z,11.73
2023-04-01T08:03:41.375Z,11.80
2023-04-01T08:06:12.218Z,11.83
2023-04-01T08:09:16.233Z,11.95
2023-04-01T08:12:27.000Z,12.13
2023-04-01T08:15:35.233Z,12.15
2023-04-01T08:18:37.382Z,12.11
2023-04-01T08:21:10.373Z,12.05
2023-04-01T08:23:48.578Z,12.06
2023-04-01T08:26:42.460Z,12.05
2023-04-01T08:29:15.750Z,12.06
2023-04-01T08:32:15.370Z,12.08
2023-04-01T08:34:46.505Z,12.17
2023-04-01T08:37:25.766Z,12.23
2023-04-01T08:39:58.519Z,12.30
2023-04-01T08:42:36.833Z,12.34
2023-04-01T08:45:20.162Z,12.42
2023-04-01T08:48:14.756Z,12.49
2023-04-01T08:51:09.250Z,12.66
2023-04-01T08:53:49.107Z,12.94
2023-04-01T08:56:21.885Z,13.22
2023-04-01T08:59:24.784Z,13.39
2023-04-01T09:02:21.407Z,13.70
2023-04-01T09:05:27.375Z,14.01
2023-04-01T09:08:05.277Z,14.10
2023-04-01T09:10:48.400Z,14.29
2023-04-01T09:14:17.302Z,14.33
2023-04-01T09:17:31.786Z,14.26
2023-04-01T09:20:08.034Z,14.43
2023-04-01T09:22:52.949Z,14.59
2023-04-01T09:25:26.288Z,14.66
2023-04-01T09:28:04.701Z,14.85
2023-04-01T09:30:34.827Z,14.99
2023-04-01T09:33:07.248Z,15.17
2023-04-01T09:35:49.456Z,15.29
2023-04-01T09:38:22.756Z,15.36
2023-04-01T09:40:58.231Z,15.37
2023-04-01T09:44:12.567Z,15.35
2023-04-01T09:46:53.883Z,15.27
2023-04-01T09:49:22.263Z,15.27
2023-04-01T09:51:56.992Z,15.49
2023-04-01T09:54:47.693Z,15.83
2023-04-01T09:57:39.421Z,15.93
2023-04-01T10:00:53.057Z,15.98
2023-04-01T10:03:36.899Z,16.22
2023-04-01T10:06:43.394Z,16.54
2023-04-01T10:09:33.357Z,16.84
2023-04-01T10:12:29.404Z,17.01
2023-04-01T10:15:12.404Z,17.21
2023-04-01T10:18:12.121Z,17.35
2023-04-01T10:21:21.153Z,17.45
2023-04-01T10:24:13.492Z,17.42
2023-04-01T10:27:04.709Z,17.46
2023-04-01T10:30:31.992Z,17.59
2023-04-01T10:33:16.747Z,17.64
2023-04-01T10:35:58.247Z,17.61
2023-04-01T10:39:00.718Z,17.61
2023-04-01T10:41:51.789Z,17.77
2023-04-01T10:46:17.652Z,17.87
2023-04-01T10:49:18.888Z,17.95
2023-04-01T10:51:48.543Z,17.95
2023-04-01T10:54:34.179Z,17.75
2023-04-01T10:57:31.838Z,17.75
2023-04-01T11:00:45.389Z,17.82
2023-04-01T11:03:45.998Z,17.82
2023-04-01T11:07:12.464Z,17.73
2023-04-01T11:10:02.863Z,17.56
2023-04-01T11:13:12.147Z,17.45
2023-04-01T11:16:36.443Z,17.50
2023-04-01T11:22:53.092Z,17.71
2023-04-01T11:25:55.467Z,17.69
2023-04-01T11:29:14.329Z,17.47
2023-04-01T11:31:55.763Z,17.18
2023-04-01T11:34:38.630Z,16.97
2023-04-01T11:37:37.729Z,16.80
2023-04-01T11:41:00.579Z,16.65
2023-04-01T11:44:00.297Z,16.49
2023-04-01T11:47:28.326Z,16.17
2023-04-01T11:50:13.871Z,16.05
2023-04-01T11:53:11.733Z,15.90
2023-04-01T11:55:52.603Z,15.86
2023-04-01T11:58:28.292Z,15.90
2023-04-01T12:01:30.422Z,15.87
2023-04-01T12:04:04.483Z,15.83
2023-04-01T12:06:45.424Z,15.80
2023-04-01T12:09:27.403Z,15.78
2023-04-01T12:12:04.798Z,15.77
2023-04-01T12:14:48.744Z,15.77
2023-04-01T12:17:35.783Z,15.72
2023-04-01T12:20:13.281Z,15.71
2023-04-01T12:22:55.967Z,15.71
2023-04-01T12:25:31.843Z,15.64
2023-04-01T12:28:08.303Z,15.58
2023-04-01T12:31:05.049Z,15.62
2023-04-01T12:33:51.656Z,15.69
2023-04-01T12:36:38.685Z,15.75
2023-04-01T12:39:27.894Z,15.71
2023-04-01T12:42:17.674Z,15.74
2023-04-01T12:44:51.641Z,15.72
2023-04-01T12:47:40.848Z,15.68
2023-04-01T12:50:35.962Z,15.66
2023-04-01T12:53:42.633Z,15.66
2023-04-01T12:56:45.681Z,15.56
2023-04-01T12:59:54.505Z,15.47
2023-04-01T13:02:41.797Z,15.37
2023-04-01T13:05:21.110Z,15.21
2023-04-01T13:08:06.027Z,15.09
2023-04-01T13:11:03.739Z,14.94
2023-04-01T13:13:36.163Z,14.69
2023-04-01T13:16:10.016Z,14.51
2023-04-01T13:18:47.052Z,14.34
2023-04-01T13:21:32.228Z,14.19
2023-04-01T13:24:18.832Z,14.15
2023-04-01T13:27:08.823Z,14.16
2023-04-01T13:30:18.821Z,14.17
2023-04-01T13:32:53.401Z,14.21
2023-04-01T13:35:58.101Z,14.20
2023-04-01T13:38:54.017Z,14.23
2023-04-01T13:41:40.660Z,14.22
2023-04-01T13:44:40.327Z,14.24
2023-04-01T13:47:46.546Z,14.34
2023-04-01T13:50:17.790Z,14.44
2023-04-01T13:52:46.071Z,14.53
2023-04-01T13:55:50.486Z,14.65
2023-04-01T13:58:44.680Z,14.68
2023-04-01T14:01:32.147Z,14.75
2023-04-01T14:04:34.889Z,14.84
2023-04-01T14:07:09.463Z,14.95
2023-04-01T14:09:43.478Z,14.99
2023-04-01T14:12:27.827Z,15.05
2023-04-01T14:14:56.615Z,15.19
2023-04-01T14:17:45.763Z,15.18
2023-04-01T14:20:16.928Z,15.10
2023-04-01T14:23:07.594Z,15.02
2023-04-01T14:25:48.302Z,14.92
2023-04-01T14:28:26.712Z,14.86
2023-04-01T14:31:34.636Z,14.76
2023-04-01T14:34:27.882Z,14.62
2023-04-01T14:37:09.265Z,14.52
2023-04-01T14:40:15.735Z,14.47
2023-04-01T14:43:30.094Z,14.39
2023-04-01T14:46:32.549Z,14.29
2023-04-01T14:49:22.365Z,14.22
2023-04-01T14:51:51.246Z,14.16
2023-04-01T14:54:25.861Z,14.12
2023-04-01T14:57:31.530Z,14.12
2023-04-01T15:00:02.910Z,14.12
2023-04-01T15:03:03.440Z,14.19
2023-04-01T15:05:52.680Z,14.25
2023-04-01T15:08:32.388Z,14.25
2023-04-01T15:11:24.903Z,14.23
2023-04-01T15:14:10.042Z,14.16
2023-04-01T15:17:01.052Z,14.07
2023-04-01T15:19:48.168Z,13.96
2023-04-01T15:22:31.836Z,13.90
2023-04-01T15:25:22.715Z,13.86
2023-04-01T15:27:55.194Z,13.82
2023-04-01T15:30:39.749Z,13.76
2023-04-01T15:33:19.497Z,13.68
2023-04-01T15:35:58.952Z,13.59
2023-04-01T15:38:59.773Z,13.55
2023-04-01T15:41:37.061Z,13.50
2023-04-01T15:44:39.538Z,13.48
2023-04-01T15:47:26.540Z,13.50
2023-04-01T15:50:19.633Z,13.44
2023-04-01T15:53:01.823Z,13.39
2023-04-01T15:55:49.654Z,13.33
2023-04-01T15:58:36.571Z,13.21
2023-04-01T16:01:11.538Z,13.06
2023-04-01T16:04:12.845Z,12.93
2023-04-01T16:06:53.749Z,12.84
2023-04-01T16:09:52.821Z,12.78
2023-04-01T16:12:37.789Z,12.70
2023-04-01T16:15:28.898Z,12.59
2023-04-01T16:18:27.876Z,12.47
2023-04-01T16:21:02.432Z,12.47
2023-04-01T16:23:50.677Z,12.45
2023-04-01T16:26:44.168Z,12.42
2023-04-01T16:29:36.883Z,12.35
2023-04-01T16:32:17.356Z,12.25
2023-04-01T16:34:55.585Z,12.19
2023-04-01T16:37:34.071Z,12.12
2023-04-01T16:40:24.035Z,12.05
2023-04-01T16:42:55.103Z,11.91
2023-04-01T16:45:32.109Z,11.83
2023-04-01T16:48:14.524Z,11.77
2023-04-01T16:50:49.614Z,11.69
2023-04-01T16:53:21.176Z,11.57
2023-04-01T16:55:55.392Z,11.45
2023-04-01T16:58:27.693Z,11.36
2023-04-01T17:01:26.436Z,11.31
2023-04-01T17:03:59.776Z,11.26
2023-04-01T17:06:49.760Z,11.20
2023-04-01T17:09:40.044Z,11.18
2023-04-01T17:12:23.915Z,11.19
2023-04-01T17:15:08.742Z,11.23
2023-04-01T17:17:52.757Z,11.24
2023-04-01T17:20:28.031Z,11.22
2023-04-01T17:23:17.914Z,11.21
2023-04-01T17:26:05.737Z,11.20
2023-04-01T17:28:43.763Z,11.22
2023-04-01T17:31:31.819Z,11.25
2023-04-01T17:34:01.510Z,11.27
2023-04-01T17:36:51.082Z,11.28
2023-04-01T17:39:37.789Z,11.25
2023-04-01T17:42:21.325Z,11.19
2023-04-01T17:45:00.421Z,11.18
2023-04-01T17:47:49.656Z,11.22
2023-04-01T17:50:35.585Z,11.27
2023-04-01T17:53:22.921Z,11.25
2023-04-01T17:56:06.471Z,11.22
2023-04-01T17:58:41.305Z,11.19
2023-04-01T18:01:13.792Z,11.18
2023-04-01T18:03:52.280Z,11.21
2023-04-01T18:06:55.940Z,11.24
2023-04-01T18:09:59.115Z,11.21
2023-04-01T18:13:08.174Z,11.15
2023-04-01T18:16:01.031Z,11.16
2023-04-01T18:18:43.388Z,11.21
2023-04-01T18:21:34.914Z,11.23
2023-04-01T18:24:26.336Z,11.22
2023-04-01T18:27:06.013Z,11.17
2023-04-01T18:29:53.611Z,11.09
2023-04-01T18:32:38.431Z,11.08
2023-04-01T18:35:35.927Z,11.05
2023-04-01T18:38:04.720Z,11.00
2023-04-01T18:40:37.577Z,10.93
2023-04-01T18:43:17.860Z,10.91
2023-04-01T18:46:04.288Z,10.92
2023-04-01T18:49:06.836Z,10.90
2023-04-01T18:51:52.653Z,10.84
2023-04-01T18:54:31.727Z,10.75
2023-04-01T18:57:13.794Z,10.72
2023-04-01T18:59:44.611Z,10.70
2023-04-01T19:02:36.483Z,10.63
2023-04-01T19:05:20.700Z,10.56
2023-04-01T19:07:52.141Z,10.53
2023-04-01T19:11:01.386Z,10.54
2023-04-01T19:13:38.766Z,10.55
2023-04-01T19:16:26.383Z,10.53
2023-04-01T19:19:31.629Z,10.53
2023-04-01T19:22:13.631Z,10.53
2023-04-01T19:24:47.027Z,10.51
2023-04-01T19:27:40.804Z,10.45
2023-04-01T19:30:20.689Z,10.38
2023-04-01T19:33:22.212Z,10.36
2023-04-01T19:36:28.938Z,10.35
2023-04-01T19:39:12.469Z,10.29
2023-04-01T19:41:54.107Z,10.28
2023-04-01T19:44:56.528Z,10.29
2023-04-01T19:47:37.459Z,10.30
2023-04-01T19:50:36.642Z,10.26
2023-04-01T19:53:24.710Z,10.20
2023-04-01T19:56:23.610Z,10.17
2023-04-01T19:58:55.264Z,10.17
2023-04-01T20:01:34.727Z,10.10
2023-04-01T20:04:31.643Z,10.01
2023-04-01T20:07:09.852Z,9.96
2023-04-01T20:09:53.182Z,9.96
2023-04-01T20:12:32.108Z,9.99
2023-04-01T20:15:07.026Z,9.99
2023-04-01T20:17:37.966Z,9.97
2023-04-01T20:20:12.220Z,9.95
2023-04-01T20:22:47.331Z,9.98
2023-04-01T20:25:38.137Z,10.02
2023-04-01T20:28:10.736Z,9.99
2023-04-01T20:31:04.698Z,9.95
2023-04-01T20:33:55.927Z,9.96
2023-04-01T20:36:49.285Z,9.99
2023-04-01T20:39:35.883Z,9.98
2023-04-01T20:42:30.853Z,9.91
2023-04-01T20:45:10.220Z,9.87
2023-04-01T20:47:59.717Z,9.87
2023-04-01T20:51:07.605Z,9.87
2023-04-01T20:53:44.381Z,9.87
2023-04-01T20:56:24.569Z,9.84
2023-04-01T20:59:20.621Z,9.84
2023-04-01T21:01:56.032Z,9.87
2023-04-01T21:04:46.474Z,9.87
2023-04-01T21:07:56.790Z,9.83
2023-04-01T21:10:46.779Z,9.86
2023-04-01T21:13:26.603Z,9.89
2023-04-01T21:16:16.304Z,9.87
2023-04-01T21:18:59.552Z,9.83
2023-04-01T21:21:48.243Z,9.82
2023-04-01T21:24:44.851Z,9.84
2023-04-01T21:27:43.980Z,9.82
2023-04-01T21:30:41.585Z,9.74
2023-04-01T21:33:35.480Z,9.72
2023-04-01T21:36:09.986Z,9.75
2023-04-01T21:38:44.696Z,9.73
2023-04-01T21:41:40.428Z,9.67
2023-04-01T21:44:29.378Z,9.64
2023-04-01T21:47:22.726Z,9.65
2023-04-01T21:50:11.894Z,9.69
2023-04-01T21:52:52.201Z,9.73
2023-04-01T21:55:43.895Z,9.73
2023-04-01T21:58:24.108Z,9.71
2023-04-01T22:01:28.339Z,9.67
2023-04-01T22:04:12.096Z,9.69
2023-04-01T22:06:58.009Z,9.66
2023-04-01T22:09:36.120Z,9.62
2023-04-01T22:12:30.704Z,9.58
2023-04-01T22:15:30.648Z,9.59
2023-04-01T22:18:17.069Z,9.60
2023-04-01T22:20:49.525Z,9.59
2023-04-01T22:23:36.615Z,9.61
2023-04-01T22:26:13.387Z,9.59
2023-04-01T22:29:06.963Z,9.56
2023-04-01T22:31:49.124Z,9.54
2023-04-01T22:34:17.439Z,9.54
2023-04-01T22:36:48.991Z,9.57
2023-04-01T22:39:58.536Z,9.59
2023-04-01T22:42:35.516Z,9.62
2023-04-01T22:45:07.380Z,9.60
2023-04-01T22:47:42.236Z,9.61
2023-04-01T22:50:17.396Z,9.64
2023-04-01T22:52:52.541Z,9.65
2023-04-01T22:55:23.583Z,9.62
2023-04-01T22:57:55.384Z,9.61
2023-04-01T23:00:27.769Z,9.62
2023-04-01T23:04:41.383Z,9.60
2023-04-01T23:07:54.961Z,9.56
2023-04-01T23:10:42.755Z,9.56
2023-04-01T23:13:21.983Z,9.57
2023-04-01T23:15:50.219Z,9.59
2023-04-01T23:18:29.116Z,9.58
2023-04-01T23:21:16.090Z,9.57
2023-04-01T23:23:59.260Z,9.56
2023-04-01T23:26:35.430Z,9.56
2023-04-01T23:29:03.621Z,9.54
2023-04-01T23:31:40.160Z,9.50
2023-04-01T23:34:14.935Z,9.50
2023-04-01T23:36:47.367Z,9.51
2023-04-01T23:39:21.379Z,9.53
2023-04-01T23:41:49.972Z,9.54
2023-04-01T23:44:18.035Z,9.50
2023-04-01T23:46:54.913Z,9.44
2023-04-01T23:49:50.380Z,9.41
2023-04-01T23:52:29.355Z,9.44
2023-04-01T23:55:20.624Z,9.48
2023-04-01T23:58:16.516Z,9.47
